WZZ6903 LHBP-LGAV
Flight info
| Callsign | WZZ6903 |
|---|---|
| Flight time | 1h 48m |
| Altitude | 39000 |
| Route | FAHAZ DCT KEROP DCT PELOV DCT NISVA DCT NIKTI DCT LMO/N0406F320 UT162 AMISI/N0359F240 T162 NEVRA |
| Aircraft | A320/M-SDE1E2E3FGIJ1J4RWXY/LB1 |
Departure
| Time | 2026-05-05 18:59 |
|---|---|
| Airport | Budapest Liszt Ferenc International Airport (LHBP) |
Arrival
| Time | 2026-05-05 20:47 |
|---|---|
| Airport | Athens Eleftherios Venizelos International Airport (LGAV) |
| Time | Latitude | Longitude | Altitude | Speed | Heading |
|---|---|---|---|---|---|
| 2026-05-05 18:21 | 47.43252 | 19.25794 | 458 ft | 0 kts | 43° |
| 2026-05-05 18:46 | 47.43251 | 19.25791 | 457 ft | 2 kts | 43° |
| 2026-05-05 18:46 | 47.43231 | 19.25766 | 457 ft | 4 kts | 39° |
| 2026-05-05 18:46 | 47.43209 | 19.25741 | 454 ft | 4 kts | 33° |
| 2026-05-05 18:46 | 47.43186 | 19.25722 | 454 ft | 4 kts | 15° |
| 2026-05-05 18:47 | 47.43164 | 19.25722 | 455 ft | 2 kts | 314° |
| 2026-05-05 18:47 | 47.43160 | 19.25728 | 456 ft | 0 kts | 313° |
| 2026-05-05 18:51 | 47.43172 | 19.25709 | 454 ft | 5 kts | 313° |
| 2026-05-05 18:51 | 47.43205 | 19.25657 | 457 ft | 9 kts | 313° |
| 2026-05-05 18:51 | 47.43253 | 19.25579 | 457 ft | 12 kts | 313° |
| 2026-05-05 18:52 | 47.43294 | 19.25512 | 457 ft | 8 kts | 311° |
| 2026-05-05 18:52 | 47.43339 | 19.25439 | 457 ft | 10 kts | 317° |
| 2026-05-05 18:52 | 47.43397 | 19.25458 | 456 ft | 9 kts | 41° |
| 2026-05-05 18:52 | 47.43445 | 19.25522 | 456 ft | 10 kts | 42° |
| 2026-05-05 18:53 | 47.43486 | 19.25578 | 457 ft | 8 kts | 43° |
| 2026-05-05 18:53 | 47.43531 | 19.25640 | 456 ft | 10 kts | 43° |
| 2026-05-05 18:53 | 47.43587 | 19.25716 | 457 ft | 11 kts | 42° |
| 2026-05-05 18:53 | 47.43646 | 19.25795 | 457 ft | 9 kts | 41° |
| 2026-05-05 18:54 | 47.43694 | 19.25858 | 457 ft | 10 kts | 42° |
| 2026-05-05 18:54 | 47.43744 | 19.25926 | 457 ft | 9 kts | 43° |
| 2026-05-05 18:54 | 47.43795 | 19.25995 | 456 ft | 10 kts | 42° |
| 2026-05-05 18:54 | 47.43847 | 19.26064 | 458 ft | 10 kts | 43° |
| 2026-05-05 18:55 | 47.43898 | 19.26135 | 458 ft | 10 kts | 42° |
| 2026-05-05 18:55 | 47.43953 | 19.26205 | 458 ft | 10 kts | 41° |
| 2026-05-05 18:55 | 47.43997 | 19.26264 | 460 ft | 9 kts | 42° |
| 2026-05-05 18:55 | 47.44038 | 19.26321 | 463 ft | 7 kts | 45° |
| 2026-05-05 18:56 | 47.44064 | 19.26382 | 468 ft | 7 kts | 68° |
| 2026-05-05 18:56 | 47.44074 | 19.26466 | 471 ft | 8 kts | 69° |
| 2026-05-05 18:56 | 47.44061 | 19.26535 | 468 ft | 0 kts | 129° |
| 2026-05-05 18:58 | 47.44060 | 19.26537 | 468 ft | 2 kts | 129° |
| 2026-05-05 18:58 | 47.43961 | 19.26692 | 470 ft | 55 kts | 133° |
| 2026-05-05 18:58 | 47.43541 | 19.27372 | 472 ft | 121 kts | 132° |
| 2026-05-05 18:58 | 47.42847 | 19.28452 | 623 ft | 157 kts | 136° |
| 2026-05-05 18:59 | 47.42125 | 19.29624 | 1262 ft | 156 kts | 127° |
| 2026-05-05 18:59 | 47.41590 | 19.31072 | 1838 ft | 168 kts | 123° |
| 2026-05-05 18:59 | 47.40972 | 19.32662 | 2326 ft | 188 kts | 125° |
| 2026-05-05 18:59 | 47.40289 | 19.34399 | 2766 ft | 208 kts | 124° |
| 2026-05-05 19:00 | 47.39539 | 19.36350 | 3115 ft | 229 kts | 124° |
| 2026-05-05 19:00 | 47.38711 | 19.38490 | 3662 ft | 249 kts | 124° |
| 2026-05-05 19:00 | 47.37565 | 19.40447 | 4391 ft | 259 kts | 152° |
| 2026-05-05 19:00 | 47.35847 | 19.41105 | 5320 ft | 259 kts | 186° |
| 2026-05-05 19:01 | 47.34196 | 19.40134 | 6360 ft | 261 kts | 219° |
| 2026-05-05 19:01 | 47.33103 | 19.37986 | 7386 ft | 266 kts | 240° |
| 2026-05-05 19:01 | 47.32342 | 19.35492 | 8439 ft | 268 kts | 244° |
| 2026-05-05 19:01 | 47.31644 | 19.32978 | 9439 ft | 269 kts | 243° |
| 2026-05-05 19:02 | 47.30877 | 19.30451 | 10263 ft | 277 kts | 241° |
| 2026-05-05 19:02 | 47.29972 | 19.27813 | 10625 ft | 298 kts | 239° |
| 2026-05-05 19:02 | 47.28944 | 19.25092 | 11250 ft | 308 kts | 237° |
| 2026-05-05 19:02 | 47.27844 | 19.22346 | 12015 ft | 314 kts | 236° |
| 2026-05-05 19:03 | 47.26694 | 19.19584 | 12789 ft | 319 kts | 236° |
| 2026-05-05 19:03 | 47.25509 | 19.16795 | 13557 ft | 324 kts | 236° |
| 2026-05-05 19:03 | 47.24295 | 19.13960 | 14248 ft | 329 kts | 236° |
| 2026-05-05 19:03 | 47.23065 | 19.11091 | 14910 ft | 334 kts | 236° |
| 2026-05-05 19:04 | 47.21834 | 19.08223 | 15577 ft | 339 kts | 235° |
| 2026-05-05 19:04 | 47.20310 | 19.05569 | 16218 ft | 342 kts | 221° |
| 2026-05-05 19:04 | 47.18349 | 19.03579 | 16866 ft | 346 kts | 207° |
| 2026-05-05 19:04 | 47.16063 | 19.02412 | 17514 ft | 352 kts | 192° |
| 2026-05-05 19:05 | 47.13601 | 19.02188 | 18141 ft | 359 kts | 178° |
| 2026-05-05 19:05 | 47.11097 | 19.02468 | 18706 ft | 364 kts | 177° |
| 2026-05-05 19:05 | 47.08555 | 19.02749 | 19302 ft | 368 kts | 177° |
| 2026-05-05 19:05 | 47.05991 | 19.03027 | 19898 ft | 372 kts | 177° |
| 2026-05-05 19:06 | 47.03401 | 19.03307 | 20498 ft | 375 kts | 178° |
| 2026-05-05 19:06 | 47.00817 | 19.03587 | 21067 ft | 379 kts | 178° |
| 2026-05-05 19:06 | 46.98182 | 19.03872 | 21619 ft | 382 kts | 178° |
| 2026-05-05 19:06 | 46.95519 | 19.04155 | 22158 ft | 386 kts | 178° |
| 2026-05-05 19:07 | 46.92831 | 19.04436 | 22715 ft | 389 kts | 178° |
| 2026-05-05 19:07 | 46.91238 | 19.04687 | 23047 ft | 392 kts | 172° |
| 2026-05-05 19:07 | 46.88127 | 19.05950 | 23630 ft | 400 kts | 160° |
| 2026-05-05 19:07 | 46.85649 | 19.07827 | 24082 ft | 405 kts | 149° |
| 2026-05-05 19:08 | 46.83271 | 19.10077 | 24535 ft | 409 kts | 149° |
| 2026-05-05 19:08 | 46.80871 | 19.12331 | 24991 ft | 411 kts | 149° |
| 2026-05-05 19:08 | 46.78481 | 19.14560 | 25440 ft | 414 kts | 149° |
| 2026-05-05 19:08 | 46.76045 | 19.16825 | 25887 ft | 417 kts | 149° |
| 2026-05-05 19:09 | 46.73586 | 19.19105 | 26320 ft | 420 kts | 149° |
| 2026-05-05 19:09 | 46.71111 | 19.21396 | 26770 ft | 423 kts | 149° |
| 2026-05-05 19:09 | 46.68611 | 19.23708 | 27209 ft | 426 kts | 149° |
| 2026-05-05 19:09 | 46.66097 | 19.26033 | 27643 ft | 429 kts | 149° |
| 2026-05-05 19:10 | 46.63567 | 19.28368 | 28073 ft | 432 kts | 149° |
| 2026-05-05 19:10 | 46.61021 | 19.30717 | 28494 ft | 435 kts | 149° |
| 2026-05-05 19:10 | 46.58486 | 19.33056 | 28902 ft | 439 kts | 149° |
| 2026-05-05 19:10 | 46.55901 | 19.35443 | 29317 ft | 442 kts | 149° |
| 2026-05-05 19:11 | 46.53297 | 19.37847 | 29744 ft | 445 kts | 149° |
| 2026-05-05 19:11 | 46.50857 | 19.40093 | 30114 ft | 448 kts | 149° |
| 2026-05-05 19:11 | 46.48213 | 19.42522 | 30476 ft | 451 kts | 149° |
| 2026-05-05 19:11 | 46.45553 | 19.44965 | 30839 ft | 454 kts | 149° |
| 2026-05-05 19:12 | 46.42883 | 19.47415 | 31205 ft | 456 kts | 149° |
| 2026-05-05 19:12 | 46.40221 | 19.49849 | 31551 ft | 459 kts | 149° |
| 2026-05-05 19:12 | 46.37515 | 19.52314 | 31955 ft | 460 kts | 149° |
| 2026-05-05 19:12 | 46.34809 | 19.54781 | 32495 ft | 458 kts | 149° |
| 2026-05-05 19:13 | 46.32118 | 19.57239 | 33050 ft | 457 kts | 149° |
| 2026-05-05 19:13 | 46.29436 | 19.59691 | 33602 ft | 455 kts | 150° |
| 2026-05-05 19:13 | 46.26764 | 19.62125 | 34119 ft | 454 kts | 150° |
| 2026-05-05 19:13 | 46.24101 | 19.64543 | 34582 ft | 452 kts | 150° |
| 2026-05-05 19:14 | 46.21437 | 19.66957 | 35020 ft | 451 kts | 150° |
| 2026-05-05 19:14 | 46.18780 | 19.69361 | 35445 ft | 450 kts | 150° |
| 2026-05-05 19:14 | 46.16177 | 19.71757 | 35853 ft | 450 kts | 149° |
| 2026-05-05 19:14 | 46.13572 | 19.74249 | 36257 ft | 449 kts | 148° |
| 2026-05-05 19:15 | 46.10991 | 19.76778 | 36651 ft | 449 kts | 147° |
| 2026-05-05 19:15 | 46.08419 | 19.79322 | 37037 ft | 448 kts | 147° |
| 2026-05-05 19:15 | 46.05846 | 19.81862 | 37410 ft | 447 kts | 147° |
| 2026-05-05 19:15 | 46.03276 | 19.84377 | 37787 ft | 447 kts | 147° |
| 2026-05-05 19:16 | 46.00706 | 19.86870 | 38160 ft | 446 kts | 148° |
| 2026-05-05 19:16 | 45.98131 | 19.89349 | 38517 ft | 445 kts | 148° |
| 2026-05-05 19:16 | 45.95554 | 19.91824 | 38802 ft | 445 kts | 148° |
| 2026-05-05 19:16 | 45.93013 | 19.94262 | 38913 ft | 446 kts | 148° |
| 2026-05-05 19:17 | 45.87842 | 19.99216 | 38946 ft | 447 kts | 148° |
| 2026-05-05 19:17 | 45.82667 | 20.04176 | 38946 ft | 447 kts | 148° |
| 2026-05-05 19:18 | 45.77492 | 20.09132 | 38948 ft | 447 kts | 148° |
| 2026-05-05 19:18 | 45.72310 | 20.14078 | 38946 ft | 448 kts | 148° |
| 2026-05-05 19:19 | 45.67153 | 20.18970 | 38951 ft | 448 kts | 148° |
| 2026-05-05 19:19 | 45.61950 | 20.23910 | 38954 ft | 449 kts | 148° |
| 2026-05-05 19:20 | 45.56747 | 20.28847 | 38956 ft | 449 kts | 148° |
| 2026-05-05 19:20 | 45.51533 | 20.33773 | 38955 ft | 450 kts | 148° |
| 2026-05-05 19:21 | 45.46312 | 20.38694 | 38955 ft | 450 kts | 148° |
| 2026-05-05 19:21 | 45.41127 | 20.43568 | 38957 ft | 450 kts | 148° |
| 2026-05-05 19:22 | 45.35903 | 20.48470 | 38954 ft | 450 kts | 148° |
| 2026-05-05 19:22 | 45.30677 | 20.53369 | 38957 ft | 450 kts | 148° |
| 2026-05-05 19:23 | 45.25440 | 20.58256 | 38958 ft | 451 kts | 148° |
| 2026-05-05 19:23 | 45.20227 | 20.63115 | 38957 ft | 451 kts | 148° |
| 2026-05-05 19:24 | 45.14975 | 20.67997 | 38959 ft | 451 kts | 148° |
| 2026-05-05 19:24 | 45.09720 | 20.72871 | 38959 ft | 452 kts | 148° |
| 2026-05-05 19:25 | 45.04460 | 20.77751 | 38961 ft | 452 kts | 148° |
| 2026-05-05 19:25 | 44.99191 | 20.82625 | 38962 ft | 453 kts | 148° |
| 2026-05-05 19:26 | 44.93962 | 20.87480 | 38961 ft | 453 kts | 147° |
| 2026-05-05 19:26 | 44.88814 | 20.92634 | 38960 ft | 454 kts | 145° |
| 2026-05-05 19:27 | 44.83738 | 20.97933 | 38961 ft | 454 kts | 144° |
| 2026-05-05 19:27 | 44.78630 | 21.03193 | 38962 ft | 455 kts | 145° |
| 2026-05-05 19:28 | 44.73521 | 21.08346 | 38965 ft | 455 kts | 146° |
| 2026-05-05 19:28 | 44.68365 | 21.13516 | 38963 ft | 456 kts | 146° |
| 2026-05-05 19:29 | 44.63203 | 21.18698 | 38964 ft | 456 kts | 146° |
| 2026-05-05 19:29 | 44.58914 | 21.23009 | 38971 ft | 456 kts | 146° |
| 2026-05-05 19:30 | 44.53749 | 21.28188 | 38973 ft | 457 kts | 146° |
| 2026-05-05 19:30 | 44.47737 | 21.34199 | 38978 ft | 457 kts | 146° |
| 2026-05-05 19:31 | 44.43432 | 21.38502 | 38973 ft | 457 kts | 146° |
| 2026-05-05 19:31 | 44.38250 | 21.43662 | 38978 ft | 458 kts | 146° |
| 2026-05-05 19:32 | 44.33055 | 21.48814 | 38981 ft | 458 kts | 146° |
| 2026-05-05 19:32 | 44.27852 | 21.53959 | 38990 ft | 458 kts | 146° |
| 2026-05-05 19:33 | 44.22655 | 21.59104 | 38992 ft | 458 kts | 146° |
| 2026-05-05 19:33 | 44.17477 | 21.64207 | 38998 ft | 459 kts | 146° |
| 2026-05-05 19:34 | 44.12269 | 21.69333 | 38999 ft | 459 kts | 146° |
| 2026-05-05 19:35 | 44.04439 | 21.77016 | 39005 ft | 459 kts | 146° |
| 2026-05-05 19:35 | 43.99208 | 21.82135 | 39004 ft | 460 kts | 146° |
| 2026-05-05 19:36 | 43.94020 | 21.87221 | 39005 ft | 460 kts | 146° |
| 2026-05-05 19:36 | 43.88783 | 21.92330 | 39007 ft | 460 kts | 146° |
| 2026-05-05 19:37 | 43.83532 | 21.97431 | 39008 ft | 461 kts | 146° |
| 2026-05-05 19:37 | 43.78285 | 22.02514 | 39005 ft | 461 kts | 146° |
| 2026-05-05 19:38 | 43.73030 | 22.07597 | 39007 ft | 461 kts | 146° |
| 2026-05-05 19:38 | 43.67811 | 22.12648 | 39008 ft | 461 kts | 146° |
| 2026-05-05 19:39 | 43.62547 | 22.17728 | 39010 ft | 461 kts | 146° |
| 2026-05-05 19:39 | 43.57282 | 22.22789 | 39010 ft | 462 kts | 146° |
| 2026-05-05 19:40 | 43.52007 | 22.27846 | 39019 ft | 462 kts | 146° |
| 2026-05-05 19:40 | 43.46762 | 22.32873 | 39023 ft | 462 kts | 146° |
| 2026-05-05 19:41 | 43.41477 | 22.37932 | 39022 ft | 463 kts | 146° |
| 2026-05-05 19:41 | 43.36182 | 22.42973 | 39031 ft | 463 kts | 146° |
| 2026-05-05 19:42 | 43.30878 | 22.48019 | 39033 ft | 464 kts | 146° |
| 2026-05-05 19:42 | 43.25578 | 22.53063 | 39037 ft | 464 kts | 146° |
| 2026-05-05 19:43 | 43.20295 | 22.58062 | 39039 ft | 465 kts | 146° |
| 2026-05-05 19:43 | 43.14976 | 22.63087 | 39044 ft | 465 kts | 146° |
| 2026-05-05 19:44 | 43.09646 | 22.68114 | 39049 ft | 465 kts | 146° |
| 2026-05-05 19:44 | 43.04316 | 22.73132 | 39047 ft | 465 kts | 146° |
| 2026-05-05 19:45 | 42.99015 | 22.78120 | 39049 ft | 466 kts | 146° |
| 2026-05-05 19:45 | 42.93677 | 22.83143 | 39053 ft | 466 kts | 146° |
| 2026-05-05 19:46 | 42.88364 | 22.88215 | 39051 ft | 466 kts | 145° |
| 2026-05-05 19:46 | 42.83049 | 22.93293 | 39051 ft | 467 kts | 146° |
| 2026-05-05 19:47 | 42.77727 | 22.98350 | 39055 ft | 467 kts | 146° |
| 2026-05-05 19:47 | 42.72433 | 23.03360 | 39057 ft | 467 kts | 146° |
| 2026-05-05 19:48 | 42.67095 | 23.08394 | 39060 ft | 467 kts | 146° |
| 2026-05-05 19:48 | 42.61757 | 23.13420 | 39059 ft | 467 kts | 146° |
| 2026-05-05 19:49 | 42.56412 | 23.18444 | 39067 ft | 468 kts | 146° |
| 2026-05-05 19:49 | 42.51092 | 23.23433 | 39066 ft | 468 kts | 146° |
| 2026-05-05 19:50 | 42.45739 | 23.28449 | 39069 ft | 468 kts | 146° |
| 2026-05-05 19:50 | 42.40382 | 23.33464 | 39070 ft | 468 kts | 146° |
| 2026-05-05 19:51 | 42.35020 | 23.38465 | 39074 ft | 468 kts | 146° |
| 2026-05-05 19:51 | 42.29655 | 23.43460 | 39081 ft | 469 kts | 146° |
| 2026-05-05 19:52 | 42.24316 | 23.48411 | 39086 ft | 469 kts | 146° |
| 2026-05-05 19:52 | 42.18933 | 23.53398 | 39091 ft | 469 kts | 146° |
| 2026-05-05 19:53 | 42.13551 | 23.58372 | 39092 ft | 469 kts | 146° |
| 2026-05-05 19:53 | 42.08166 | 23.63338 | 39089 ft | 469 kts | 146° |
| 2026-05-05 19:54 | 42.02814 | 23.68263 | 39094 ft | 469 kts | 146° |
| 2026-05-05 19:54 | 41.97419 | 23.73226 | 39093 ft | 469 kts | 146° |
| 2026-05-05 19:55 | 41.92032 | 23.78161 | 39090 ft | 469 kts | 146° |
| 2026-05-05 19:55 | 41.86625 | 23.83100 | 39090 ft | 470 kts | 146° |
| 2026-05-05 19:56 | 41.81260 | 23.88006 | 39092 ft | 470 kts | 146° |
| 2026-05-05 19:56 | 41.75866 | 23.92923 | 39092 ft | 470 kts | 146° |
| 2026-05-05 19:57 | 41.70445 | 23.97856 | 39090 ft | 470 kts | 146° |
| 2026-05-05 19:57 | 41.65054 | 24.02747 | 39086 ft | 470 kts | 146° |
| 2026-05-05 19:58 | 41.59612 | 24.07671 | 39086 ft | 471 kts | 146° |
| 2026-05-05 19:58 | 41.54184 | 24.12471 | 39082 ft | 471 kts | 151° |
| 2026-05-05 19:59 | 41.48394 | 24.16567 | 39078 ft | 471 kts | 153° |
| 2026-05-05 19:59 | 41.42592 | 24.20641 | 39084 ft | 472 kts | 153° |
| 2026-05-05 20:00 | 41.36778 | 24.24723 | 39081 ft | 472 kts | 153° |
| 2026-05-05 20:00 | 41.31008 | 24.28767 | 39080 ft | 473 kts | 153° |
| 2026-05-05 20:01 | 41.25178 | 24.32838 | 39071 ft | 473 kts | 153° |
| 2026-05-05 20:01 | 41.19352 | 24.36896 | 39070 ft | 473 kts | 153° |
| 2026-05-05 20:02 | 41.13510 | 24.40965 | 39071 ft | 474 kts | 153° |
| 2026-05-05 20:02 | 41.07707 | 24.44993 | 39070 ft | 474 kts | 153° |
| 2026-05-05 20:03 | 41.01859 | 24.49042 | 39070 ft | 474 kts | 153° |
| 2026-05-05 20:03 | 40.96006 | 24.53093 | 39066 ft | 475 kts | 153° |
| 2026-05-05 20:04 | 40.90147 | 24.57136 | 39066 ft | 475 kts | 153° |
| 2026-05-05 20:04 | 40.84285 | 24.61166 | 39070 ft | 475 kts | 153° |
| 2026-05-05 20:05 | 40.78455 | 24.65171 | 39069 ft | 476 kts | 153° |
| 2026-05-05 20:05 | 40.72580 | 24.69211 | 39068 ft | 476 kts | 153° |
| 2026-05-05 20:06 | 40.66694 | 24.73251 | 39070 ft | 477 kts | 153° |
| 2026-05-05 20:06 | 40.60805 | 24.77277 | 39070 ft | 477 kts | 153° |
| 2026-05-05 20:07 | 40.54947 | 24.81267 | 39066 ft | 477 kts | 153° |
| 2026-05-05 20:07 | 40.49044 | 24.85283 | 39068 ft | 478 kts | 153° |
| 2026-05-05 20:08 | 40.43129 | 24.89295 | 39065 ft | 479 kts | 153° |
| 2026-05-05 20:08 | 40.37214 | 24.93302 | 39065 ft | 479 kts | 153° |
| 2026-05-05 20:09 | 40.31289 | 24.97305 | 39068 ft | 479 kts | 153° |
| 2026-05-05 20:09 | 40.25400 | 25.01285 | 39070 ft | 479 kts | 153° |
| 2026-05-05 20:10 | 40.19470 | 25.05283 | 39073 ft | 480 kts | 153° |
| 2026-05-05 20:10 | 40.13533 | 25.09272 | 39078 ft | 480 kts | 153° |
| 2026-05-05 20:11 | 40.07589 | 25.13257 | 39077 ft | 480 kts | 153° |
| 2026-05-05 20:11 | 40.01699 | 25.17204 | 39074 ft | 479 kts | 154° |
| 2026-05-05 20:12 | 39.97877 | 25.19702 | 39075 ft | 478 kts | 158° |
| 2026-05-05 20:12 | 39.94739 | 25.21096 | 39073 ft | 475 kts | 169° |
| 2026-05-05 20:12 | 39.91494 | 25.21763 | 39071 ft | 471 kts | 179° |
| 2026-05-05 20:13 | 39.85067 | 25.20960 | 39070 ft | 461 kts | 199° |
| 2026-05-05 20:13 | 39.78976 | 25.18578 | 39065 ft | 460 kts | 201° |
| 2026-05-05 20:14 | 39.72847 | 25.16170 | 39066 ft | 460 kts | 201° |
| 2026-05-05 20:14 | 39.66721 | 25.13760 | 39070 ft | 460 kts | 201° |
| 2026-05-05 20:15 | 39.60596 | 25.11351 | 39070 ft | 460 kts | 201° |
| 2026-05-05 20:15 | 39.54471 | 25.08944 | 39071 ft | 460 kts | 201° |
| 2026-05-05 20:16 | 39.48393 | 25.06565 | 39074 ft | 460 kts | 201° |
| 2026-05-05 20:16 | 39.42264 | 25.04163 | 39077 ft | 460 kts | 201° |
| 2026-05-05 20:17 | 39.36139 | 25.01769 | 39079 ft | 460 kts | 201° |
| 2026-05-05 20:17 | 39.30026 | 24.99383 | 39080 ft | 459 kts | 201° |
| 2026-05-05 20:18 | 39.23909 | 24.96998 | 39079 ft | 459 kts | 201° |
| 2026-05-05 20:18 | 39.17844 | 24.94640 | 39082 ft | 458 kts | 201° |
| 2026-05-05 20:19 | 39.11738 | 24.92274 | 39085 ft | 458 kts | 201° |
| 2026-05-05 20:19 | 39.05635 | 24.89916 | 39079 ft | 457 kts | 201° |
| 2026-05-05 20:20 | 38.99542 | 24.87571 | 39079 ft | 457 kts | 201° |
| 2026-05-05 20:20 | 38.93455 | 24.85227 | 39080 ft | 457 kts | 201° |
| 2026-05-05 20:21 | 38.87404 | 24.82891 | 38770 ft | 459 kts | 201° |
| 2026-05-05 20:21 | 38.84300 | 24.81689 | 37608 ft | 472 kts | 202° |
| 2026-05-05 20:21 | 38.81137 | 24.80467 | 36451 ft | 476 kts | 202° |
| 2026-05-05 20:21 | 38.77946 | 24.79246 | 35290 ft | 477 kts | 202° |
| 2026-05-05 20:22 | 38.75027 | 24.78144 | 35021 ft | 459 kts | 203° |
| 2026-05-05 20:22 | 38.72028 | 24.77021 | 34731 ft | 441 kts | 203° |
| 2026-05-05 20:22 | 38.69117 | 24.75925 | 34266 ft | 430 kts | 204° |
| 2026-05-05 20:22 | 38.66280 | 24.74847 | 33794 ft | 423 kts | 205° |
| 2026-05-05 20:23 | 38.63502 | 24.73777 | 33349 ft | 423 kts | 205° |
| 2026-05-05 20:23 | 38.60690 | 24.72687 | 32906 ft | 422 kts | 205° |
| 2026-05-05 20:23 | 38.57887 | 24.71602 | 32461 ft | 420 kts | 205° |
| 2026-05-05 20:23 | 38.55099 | 24.70532 | 32018 ft | 418 kts | 204° |
| 2026-05-05 20:24 | 38.52323 | 24.69474 | 31579 ft | 415 kts | 204° |
| 2026-05-05 20:24 | 38.49569 | 24.68427 | 31154 ft | 413 kts | 204° |
| 2026-05-05 20:24 | 38.46758 | 24.67342 | 30826 ft | 429 kts | 204° |
| 2026-05-05 20:24 | 38.43878 | 24.66235 | 30579 ft | 435 kts | 203° |
| 2026-05-05 20:25 | 38.40974 | 24.65135 | 30339 ft | 435 kts | 203° |
| 2026-05-05 20:25 | 38.38114 | 24.64059 | 30095 ft | 434 kts | 202° |
| 2026-05-05 20:25 | 38.35224 | 24.62974 | 29808 ft | 431 kts | 203° |
| 2026-05-05 20:25 | 38.32332 | 24.61884 | 28772 ft | 440 kts | 202° |
| 2026-05-05 20:26 | 38.29398 | 24.60772 | 28203 ft | 438 kts | 202° |
| 2026-05-05 20:26 | 38.26496 | 24.59679 | 27780 ft | 433 kts | 202° |
| 2026-05-05 20:26 | 38.23616 | 24.58599 | 27326 ft | 429 kts | 202° |
| 2026-05-05 20:26 | 38.20772 | 24.57532 | 26878 ft | 425 kts | 202° |
| 2026-05-05 20:27 | 38.17942 | 24.56467 | 26438 ft | 422 kts | 202° |
| 2026-05-05 20:27 | 38.15184 | 24.55407 | 26016 ft | 418 kts | 203° |
| 2026-05-05 20:27 | 38.12426 | 24.54263 | 25581 ft | 415 kts | 205° |
| 2026-05-05 20:27 | 38.09707 | 24.53074 | 25132 ft | 412 kts | 205° |
| 2026-05-05 20:28 | 38.07012 | 24.51873 | 24694 ft | 410 kts | 205° |
| 2026-05-05 20:28 | 38.04329 | 24.50678 | 24225 ft | 408 kts | 205° |
| 2026-05-05 20:28 | 38.01654 | 24.49498 | 23782 ft | 405 kts | 205° |
| 2026-05-05 20:28 | 37.98993 | 24.48339 | 23270 ft | 404 kts | 204° |
| 2026-05-05 20:29 | 37.96342 | 24.47197 | 22800 ft | 401 kts | 204° |
| 2026-05-05 20:29 | 37.93716 | 24.46076 | 22342 ft | 397 kts | 204° |
| 2026-05-05 20:29 | 37.91148 | 24.44983 | 21892 ft | 393 kts | 204° |
| 2026-05-05 20:29 | 37.88564 | 24.43886 | 21433 ft | 389 kts | 204° |
| 2026-05-05 20:30 | 37.86013 | 24.42800 | 20978 ft | 385 kts | 204° |
| 2026-05-05 20:30 | 37.83483 | 24.41719 | 20532 ft | 382 kts | 204° |
| 2026-05-05 20:30 | 37.80975 | 24.40644 | 20064 ft | 380 kts | 204° |
| 2026-05-05 20:30 | 37.78481 | 24.39574 | 19637 ft | 377 kts | 203° |
| 2026-05-05 20:31 | 37.76002 | 24.38513 | 19190 ft | 375 kts | 203° |
| 2026-05-05 20:31 | 37.73546 | 24.37463 | 18744 ft | 373 kts | 203° |
| 2026-05-05 20:31 | 37.71092 | 24.36416 | 18289 ft | 371 kts | 203° |
| 2026-05-05 20:31 | 37.68655 | 24.35377 | 17809 ft | 368 kts | 202° |
| 2026-05-05 20:32 | 37.66279 | 24.34365 | 17381 ft | 364 kts | 202° |
| 2026-05-05 20:32 | 37.63884 | 24.33347 | 16932 ft | 362 kts | 202° |
| 2026-05-05 20:32 | 37.61508 | 24.32338 | 16511 ft | 359 kts | 202° |
| 2026-05-05 20:32 | 37.59241 | 24.31105 | 16086 ft | 352 kts | 216° |
| 2026-05-05 20:33 | 37.57399 | 24.29160 | 15677 ft | 342 kts | 233° |
| 2026-05-05 20:33 | 37.56127 | 24.26693 | 15259 ft | 332 kts | 250° |
| 2026-05-05 20:33 | 37.55488 | 24.23944 | 14839 ft | 324 kts | 266° |
| 2026-05-05 20:33 | 37.55336 | 24.21136 | 14447 ft | 320 kts | 270° |
| 2026-05-05 20:34 | 37.55218 | 24.18384 | 14054 ft | 319 kts | 270° |
| 2026-05-05 20:34 | 37.55091 | 24.15595 | 13625 ft | 318 kts | 270° |
| 2026-05-05 20:34 | 37.54958 | 24.12815 | 13205 ft | 317 kts | 270° |
| 2026-05-05 20:34 | 37.54824 | 24.10054 | 12802 ft | 315 kts | 270° |
| 2026-05-05 20:35 | 37.54691 | 24.07305 | 12399 ft | 313 kts | 270° |
| 2026-05-05 20:35 | 37.54561 | 24.04573 | 11998 ft | 312 kts | 270° |
| 2026-05-05 20:35 | 37.54435 | 24.01844 | 11600 ft | 311 kts | 270° |
| 2026-05-05 20:35 | 37.54307 | 23.99129 | 11205 ft | 310 kts | 270° |
| 2026-05-05 20:36 | 37.54183 | 23.96462 | 10881 ft | 307 kts | 270° |
| 2026-05-05 20:36 | 37.54057 | 23.93793 | 10566 ft | 304 kts | 270° |
| 2026-05-05 20:36 | 37.53932 | 23.91142 | 10206 ft | 303 kts | 270° |
| 2026-05-05 20:36 | 37.53807 | 23.88505 | 9862 ft | 301 kts | 270° |
| 2026-05-05 20:37 | 37.53682 | 23.85871 | 9528 ft | 299 kts | 269° |
| 2026-05-05 20:37 | 37.53558 | 23.83271 | 9053 ft | 300 kts | 269° |
| 2026-05-05 20:37 | 37.53434 | 23.80697 | 8725 ft | 285 kts | 269° |
| 2026-05-05 20:37 | 37.53326 | 23.78291 | 8581 ft | 265 kts | 273° |
| 2026-05-05 20:38 | 37.53719 | 23.76156 | 8266 ft | 249 kts | 303° |
| 2026-05-05 20:38 | 37.54851 | 23.74602 | 8084 ft | 242 kts | 329° |
| 2026-05-05 20:38 | 37.56433 | 23.73948 | 7749 ft | 239 kts | 356° |
| 2026-05-05 20:38 | 37.58092 | 23.73816 | 7468 ft | 238 kts | 357° |
| 2026-05-05 20:39 | 37.59737 | 23.73692 | 6974 ft | 237 kts | 357° |
| 2026-05-05 20:39 | 37.61378 | 23.73568 | 6457 ft | 236 kts | 356° |
| 2026-05-05 20:39 | 37.63010 | 23.73443 | 5948 ft | 235 kts | 356° |
| 2026-05-05 20:39 | 37.64641 | 23.73316 | 5394 ft | 235 kts | 356° |
| 2026-05-05 20:40 | 37.66272 | 23.73190 | 4856 ft | 235 kts | 356° |
| 2026-05-05 20:40 | 37.67874 | 23.73064 | 4378 ft | 232 kts | 356° |
| 2026-05-05 20:40 | 37.69467 | 23.73191 | 4053 ft | 225 kts | 14° |
| 2026-05-05 20:40 | 37.70826 | 23.73955 | 3993 ft | 205 kts | 32° |
| 2026-05-05 20:41 | 37.71930 | 23.74988 | 3947 ft | 193 kts | 35° |
| 2026-05-05 20:41 | 37.73000 | 23.75995 | 3872 ft | 191 kts | 35° |
| 2026-05-05 20:41 | 37.74058 | 23.76992 | 3789 ft | 190 kts | 35° |
| 2026-05-05 20:41 | 37.75114 | 23.77989 | 3692 ft | 189 kts | 35° |
| 2026-05-05 20:42 | 37.76167 | 23.78984 | 3588 ft | 189 kts | 35° |
| 2026-05-05 20:42 | 37.77217 | 23.79976 | 3514 ft | 186 kts | 35° |
| 2026-05-05 20:42 | 37.78209 | 23.80915 | 3431 ft | 174 kts | 35° |
| 2026-05-05 20:42 | 37.79158 | 23.81813 | 3332 ft | 169 kts | 34° |
| 2026-05-05 20:43 | 37.80096 | 23.82699 | 3257 ft | 168 kts | 35° |
| 2026-05-05 20:43 | 37.81031 | 23.83584 | 3079 ft | 168 kts | 34° |
| 2026-05-05 20:43 | 37.81971 | 23.84473 | 2889 ft | 172 kts | 34° |
| 2026-05-05 20:43 | 37.82942 | 23.85392 | 2652 ft | 175 kts | 34° |
| 2026-05-05 20:44 | 37.83915 | 23.86315 | 2423 ft | 174 kts | 34° |
| 2026-05-05 20:44 | 37.84854 | 23.87204 | 2205 ft | 170 kts | 35° |
| 2026-05-05 20:44 | 37.85791 | 23.88093 | 1984 ft | 168 kts | 34° |
| 2026-05-05 20:44 | 37.86722 | 23.88976 | 1791 ft | 166 kts | 35° |
| 2026-05-05 20:45 | 37.88464 | 23.90629 | 1333 ft | 143 kts | 35° |
| 2026-05-05 20:45 | 37.89239 | 23.91364 | 1150 ft | 137 kts | 36° |
| 2026-05-05 20:45 | 37.89989 | 23.92076 | 960 ft | 133 kts | 36° |
| 2026-05-05 20:46 | 37.90724 | 23.92775 | 780 ft | 131 kts | 37° |
| 2026-05-05 20:46 | 37.91437 | 23.93456 | 614 ft | 130 kts | 37° |
| 2026-05-05 20:46 | 37.92156 | 23.94141 | 437 ft | 129 kts | 36° |
| 2026-05-05 20:46 | 37.92867 | 23.94818 | 308 ft | 122 kts | 37° |
| 2026-05-05 20:47 | 37.93452 | 23.95370 | 286 ft | 82 kts | 37° |
| 2026-05-05 20:47 | 37.93772 | 23.95675 | 279 ft | 34 kts | 37° |
| 2026-05-05 20:47 | 37.93943 | 23.95839 | 280 ft | 27 kts | 37° |
| 2026-05-05 20:47 | 37.94071 | 23.95949 | 282 ft | 20 kts | 28° |
| 2026-05-05 20:48 | 37.94196 | 23.95997 | 286 ft | 17 kts | 10° |
| 2026-05-05 20:48 | 37.94302 | 23.96008 | 299 ft | 14 kts | 345° |
| 2026-05-05 20:48 | 37.94348 | 23.95917 | 302 ft | 12 kts | 290° |
| 2026-05-05 20:48 | 37.94363 | 23.95826 | 300 ft | 12 kts | 251° |
| 2026-05-05 20:49 | 37.94300 | 23.95751 | 300 ft | 14 kts | 220° |
| 2026-05-05 20:49 | 37.94232 | 23.95689 | 302 ft | 10 kts | 214° |
| 2026-05-05 20:49 | 37.94174 | 23.95638 | 302 ft | 11 kts | 216° |
| 2026-05-05 20:49 | 37.94133 | 23.95599 | 299 ft | 0 kts | 217° |
| 2026-05-05 20:50 | 37.94128 | 23.95587 | 300 ft | 3 kts | 248° |
| 2026-05-05 20:50 | 37.94134 | 23.95555 | 300 ft | 2 kts | 288° |
| 2026-05-05 20:50 | 37.94125 | 23.95546 | 300 ft | 4 kts | 211° |
| 2026-05-05 20:50 | 37.94069 | 23.95533 | 299 ft | 11 kts | 202° |
| 2026-05-05 20:51 | 37.93998 | 23.95471 | 299 ft | 14 kts | 216° |
| 2026-05-05 20:51 | 37.93916 | 23.95391 | 299 ft | 14 kts | 218° |
| 2026-05-05 20:51 | 37.93833 | 23.95311 | 300 ft | 15 kts | 217° |
| 2026-05-05 20:51 | 37.93753 | 23.95232 | 301 ft | 15 kts | 218° |
| 2026-05-05 20:52 | 37.93666 | 23.95151 | 301 ft | 16 kts | 217° |
| 2026-05-05 20:52 | 37.93580 | 23.95068 | 301 ft | 15 kts | 217° |
| 2026-05-05 20:52 | 37.93498 | 23.94992 | 302 ft | 15 kts | 216° |
| 2026-05-05 20:52 | 37.93420 | 23.94918 | 300 ft | 15 kts | 217° |
| 2026-05-05 20:53 | 37.93336 | 23.94838 | 301 ft | 15 kts | 217° |
| 2026-05-05 20:53 | 37.93253 | 23.94760 | 301 ft | 15 kts | 217° |
| 2026-05-05 20:53 | 37.93171 | 23.94683 | 301 ft | 14 kts | 215° |
| 2026-05-05 20:53 | 37.93113 | 23.94603 | 304 ft | 12 kts | 261° |
| 2026-05-05 20:54 | 37.93145 | 23.94519 | 305 ft | 9 kts | 308° |
| 2026-05-05 20:54 | 37.93159 | 23.94463 | 301 ft | 6 kts | 243° |
| 2026-05-05 20:54 | 37.93132 | 23.94432 | 303 ft | 4 kts | 217° |
| 2026-05-05 20:54 | 37.93113 | 23.94415 | 303 ft | 0 kts | 216° |